sensor_id;sensor_type;location;lat;lon;timestamp;P1;durP1;ratioP1;P2;durP2;ratioP2
15689;SDS011;7945;48.816;11.506;2023-08-07T00:00:42;1.88;;;1.20;;
15689;SDS011;7945;48.816;11.506;2023-08-07T00:03:09;1.00;;;1.00;;
15689;SDS011;7945;48.816;11.506;2023-08-07T00:05:38;0.90;;;0.90;;
15689;SDS011;7945;48.816;11.506;2023-08-07T00:08:04;1.60;;;0.93;;
15689;SDS011;7945;48.816;11.506;2023-08-07T00:10:31;1.13;;;1.02;;
15689;SDS011;7945;48.816;11.506;2023-08-07T00:12:58;1.15;;;1.05;;
15689;SDS011;7945;48.816;11.506;2023-08-07T00:15:25;1.25;;;1.15;;
15689;SDS011;7945;48.816;11.506;2023-08-07T00:17:51;1.65;;;1.10;;
15689;SDS011;7945;48.816;11.506;2023-08-07T00:20:18;1.20;;;1.10;;
15689;SDS011;7945;48.816;11.506;2023-08-07T00:22:46;1.25;;;1.17;;
15689;SDS011;7945;48.816;11.506;2023-08-07T00:25:13;1.73;;;1.35;;
15689;SDS011;7945;48.816;11.506;2023-08-07T00:27:40;2.10;;;1.13;;
15689;SDS011;7945;48.816;11.506;2023-08-07T00:30:07;1.20;;;1.10;;
15689;SDS011;7945;48.816;11.506;2023-08-07T00:32:34;1.75;;;1.20;;
15689;SDS011;7945;48.816;11.506;2023-08-07T00:35:01;1.73;;;1.20;;
15689;SDS011;7945;48.816;11.506;2023-08-07T00:37:29;1.30;;;1.20;;
15689;SDS011;7945;48.816;11.506;2023-08-07T00:39:57;2.30;;;1.25;;
15689;SDS011;7945;48.816;11.506;2023-08-07T00:42:24;1.27;;;1.17;;
15689;SDS011;7945;48.816;11.506;2023-08-07T00:44:51;1.70;;;1.00;;
15689;SDS011;7945;48.816;11.506;2023-08-07T00:47:17;1.77;;;1.10;;
15689;SDS011;7945;48.816;11.506;2023-08-07T00:49:44;1.05;;;1.00;;
15689;SDS011;7945;48.816;11.506;2023-08-07T00:52:11;1.63;;;1.20;;
15689;SDS011;7945;48.816;11.506;2023-08-07T00:54:38;1.13;;;1.13;;
15689;SDS011;7945;48.816;11.506;2023-08-07T00:57:09;1.35;;;1.17;;
15689;SDS011;7945;48.816;11.506;2023-08-07T00:59:37;1.77;;;1.20;;
15689;SDS011;7945;48.816;11.506;2023-08-07T01:02:05;1.58;;;1.02;;
15689;SDS011;7945;48.816;11.506;2023-08-07T01:04:32;0.98;;;0.98;;
15689;SDS011;7945;48.816;11.506;2023-08-07T01:06:59;1.08;;;1.08;;
15689;SDS011;7945;48.816;11.506;2023-08-07T01:09:26;1.10;;;1.10;;
15689;SDS011;7945;48.816;11.506;2023-08-07T01:11:54;1.35;;;1.20;;
15689;SDS011;7945;48.816;11.506;2023-08-07T01:15:03;1.00;;;1.00;;
15689;SDS011;7945;48.816;11.506;2023-08-07T01:17:36;1.42;;;1.30;;
15689;SDS011;7945;48.816;11.506;2023-08-07T01:20:04;1.50;;;1.20;;
15689;SDS011;7945;48.816;11.506;2023-08-07T01:22:33;1.50;;;1.40;;
15689;SDS011;7945;48.816;11.506;2023-08-07T01:25:00;1.00;;;1.00;;
15689;SDS011;7945;48.816;11.506;2023-08-07T01:27:35;1.30;;;1.20;;
15689;SDS011;7945;48.816;11.506;2023-08-07T01:30:08;1.98;;;1.40;;
15689;SDS011;7945;48.816;11.506;2023-08-07T01:32:41;1.25;;;1.10;;
15689;SDS011;7945;48.816;11.506;2023-08-07T01:35:14;1.30;;;1.20;;
15689;SDS011;7945;48.816;11.506;2023-08-07T01:37:43;1.55;;;1.17;;
15689;SDS011;7945;48.816;11.506;2023-08-07T01:40:12;1.38;;;1.27;;
15689;SDS011;7945;48.816;11.506;2023-08-07T01:42:40;1.52;;;1.23;;
15689;SDS011;7945;48.816;11.506;2023-08-07T01:45:07;1.15;;;1.02;;
15689;SDS011;7945;48.816;11.506;2023-08-07T01:47:35;1.80;;;1.10;;
15689;SDS011;7945;48.816;11.506;2023-08-07T01:50:01;1.20;;;1.10;;
15689;SDS011;7945;48.816;11.506;2023-08-07T01:52:28;1.20;;;1.10;;
15689;SDS011;7945;48.816;11.506;2023-08-07T01:54:56;1.00;;;1.00;;
15689;SDS011;7945;48.816;11.506;2023-08-07T01:57:23;0.98;;;0.98;;
15689;SDS011;7945;48.816;11.506;2023-08-07T01:59:50;1.00;;;1.00;;
15689;SDS011;7945;48.816;11.506;2023-08-07T02:02:17;1.02;;;0.98;;
15689;SDS011;7945;48.816;11.506;2023-08-07T02:04:44;2.65;;;1.27;;
15689;SDS011;7945;48.816;11.506;2023-08-07T02:07:11;1.00;;;1.00;;
15689;SDS011;7945;48.816;11.506;2023-08-07T02:09:38;1.95;;;1.17;;
15689;SDS011;7945;48.816;11.506;2023-08-07T02:12:06;0.98;;;0.98;;
15689;SDS011;7945;48.816;11.506;2023-08-07T02:14:34;1.05;;;1.02;;
15689;SDS011;7945;48.816;11.506;2023-08-07T02:17:00;1.13;;;1.13;;
15689;SDS011;7945;48.816;11.506;2023-08-07T02:19:27;1.17;;;1.10;;
15689;SDS011;7945;48.816;11.506;2023-08-07T02:21:54;1.25;;;1.15;;
15689;SDS011;7945;48.816;11.506;2023-08-07T02:24:21;1.10;;;1.10;;
15689;SDS011;7945;48.816;11.506;2023-08-07T02:26:47;1.08;;;1.00;;
15689;SDS011;7945;48.816;11.506;2023-08-07T02:29:16;1.50;;;1.20;;
15689;SDS011;7945;48.816;11.506;2023-08-07T02:31:42;1.20;;;1.10;;
15689;SDS011;7945;48.816;11.506;2023-08-07T02:34:09;1.38;;;1.10;;
15689;SDS011;7945;48.816;11.506;2023-08-07T02:36:36;1.30;;;1.20;;
15689;SDS011;7945;48.816;11.506;2023-08-07T02:39:03;1.70;;;1.10;;
15689;SDS011;7945;48.816;11.506;2023-08-07T02:41:30;0.90;;;0.90;;
15689;SDS011;7945;48.816;11.506;2023-08-07T02:43:57;2.83;;;1.38;;
15689;SDS011;7945;48.816;11.506;2023-08-07T02:46:25;1.88;;;1.27;;
15689;SDS011;7945;48.816;11.506;2023-08-07T02:48:52;1.45;;;1.30;;
15689;SDS011;7945;48.816;11.506;2023-08-07T02:51:19;2.55;;;1.40;;
15689;SDS011;7945;48.816;11.506;2023-08-07T02:53:45;1.40;;;1.30;;
15689;SDS011;7945;48.816;11.506;2023-08-07T02:56:12;1.33;;;1.20;;
15689;SDS011;7945;48.816;11.506;2023-08-07T02:58:39;1.83;;;1.30;;
15689;SDS011;7945;48.816;11.506;2023-08-07T03:01:06;2.88;;;1.20;;
15689;SDS011;7945;48.816;11.506;2023-08-07T03:03:34;1.55;;;1.45;;
15689;SDS011;7945;48.816;11.506;2023-08-07T03:06:01;3.30;;;1.30;;
15689;SDS011;7945;48.816;11.506;2023-08-07T03:08:28;1.98;;;1.30;;
15689;SDS011;7945;48.816;11.506;2023-08-07T03:10:56;2.47;;;1.33;;
15689;SDS011;7945;48.816;11.506;2023-08-07T03:13:23;1.40;;;1.30;;
15689;SDS011;7945;48.816;11.506;2023-08-07T03:15:53;1.50;;;1.40;;
15689;SDS011;7945;48.816;11.506;2023-08-07T03:18:25;2.28;;;1.52;;
15689;SDS011;7945;48.816;11.506;2023-08-07T03:20:53;1.60;;;1.40;;
15689;SDS011;7945;48.816;11.506;2023-08-07T03:23:20;1.50;;;1.40;;
15689;SDS011;7945;48.816;11.506;2023-08-07T03:25:47;1.75;;;1.50;;
15689;SDS011;7945;48.816;11.506;2023-08-07T03:28:14;1.88;;;1.42;;
15689;SDS011;7945;48.816;11.506;2023-08-07T03:30:41;3.97;;;1.48;;
15689;SDS011;7945;48.816;11.506;2023-08-07T03:33:09;3.17;;;1.60;;
15689;SDS011;7945;48.816;11.506;2023-08-07T03:35:36;2.10;;;1.70;;
15689;SDS011;7945;48.816;11.506;2023-08-07T03:38:04;3.05;;;1.50;;
15689;SDS011;7945;48.816;11.506;2023-08-07T03:40:31;2.50;;;1.73;;
15689;SDS011;7945;48.816;11.506;2023-08-07T03:42:58;1.80;;;1.50;;
15689;SDS011;7945;48.816;11.506;2023-08-07T03:45:25;3.60;;;1.65;;
15689;SDS011;7945;48.816;11.506;2023-08-07T03:47:51;1.98;;;1.73;;
15689;SDS011;7945;48.816;11.506;2023-08-07T03:50:18;4.53;;;2.00;;
15689;SDS011;7945;48.816;11.506;2023-08-07T03:52:45;3.13;;;1.60;;
15689;SDS011;7945;48.816;11.506;2023-08-07T03:55:13;1.80;;;1.70;;
15689;SDS011;7945;48.816;11.506;2023-08-07T03:57:40;1.77;;;1.63;;
15689;SDS011;7945;48.816;11.506;2023-08-07T04:00:07;1.85;;;1.67;;
15689;SDS011;7945;48.816;11.506;2023-08-07T04:02:34;2.00;;;1.80;;
15689;SDS011;7945;48.816;11.506;2023-08-07T04:05:01;1.85;;;1.52;;
15689;SDS011;7945;48.816;11.506;2023-08-07T04:07:28;3.05;;;1.95;;
15689;SDS011;7945;48.816;11.506;2023-08-07T04:09:55;1.65;;;1.52;;
15689;SDS011;7945;48.816;11.506;2023-08-07T04:12:23;2.28;;;2.03;;
15689;SDS011;7945;48.816;11.506;2023-08-07T04:14:50;1.90;;;1.70;;
15689;SDS011;7945;48.816;11.506;2023-08-07T04:17:17;2.33;;;1.65;;
15689;SDS011;7945;48.816;11.506;2023-08-07T04:19:44;3.50;;;1.80;;
15689;SDS011;7945;48.816;11.506;2023-08-07T04:22:10;2.85;;;1.90;;
15689;SDS011;7945;48.816;11.506;2023-08-07T04:24:37;2.38;;;1.95;;
15689;SDS011;7945;48.816;11.506;2023-08-07T04:27:04;2.75;;;1.80;;
15689;SDS011;7945;48.816;11.506;2023-08-07T04:29:33;3.17;;;1.83;;
15689;SDS011;7945;48.816;11.506;2023-08-07T04:32:00;1.70;;;1.60;;
15689;SDS011;7945;48.816;11.506;2023-08-07T04:34:26;3.38;;;1.92;;
15689;SDS011;7945;48.816;11.506;2023-08-07T04:36:53;2.05;;;1.60;;
15689;SDS011;7945;48.816;11.506;2023-08-07T04:39:21;3.30;;;1.80;;
15689;SDS011;7945;48.816;11.506;2023-08-07T04:41:48;3.47;;;2.17;;
15689;SDS011;7945;48.816;11.506;2023-08-07T04:44:15;1.75;;;1.65;;
15689;SDS011;7945;48.816;11.506;2023-08-07T04:46:43;2.00;;;1.83;;
15689;SDS011;7945;48.816;11.506;2023-08-07T04:49:10;3.05;;;2.00;;
15689;SDS011;7945;48.816;11.506;2023-08-07T04:51:37;4.57;;;2.10;;
15689;SDS011;7945;48.816;11.506;2023-08-07T04:54:04;1.80;;;1.70;;
15689;SDS011;7945;48.816;11.506;2023-08-07T04:56:30;2.33;;;2.10;;
15689;SDS011;7945;48.816;11.506;2023-08-07T04:58:57;1.88;;;1.70;;
15689;SDS011;7945;48.816;11.506;2023-08-07T05:01:24;3.03;;;2.38;;
15689;SDS011;7945;48.816;11.506;2023-08-07T05:03:52;2.53;;;1.80;;
15689;SDS011;7945;48.816;11.506;2023-08-07T05:06:18;2.45;;;1.85;;
15689;SDS011;7945;48.816;11.506;2023-08-07T05:08:45;2.65;;;2.00;;
15689;SDS011;7945;48.816;11.506;2023-08-07T05:11:12;2.15;;;1.95;;
15689;SDS011;7945;48.816;11.506;2023-08-07T05:13:40;3.25;;;2.00;;
15689;SDS011;7945;48.816;11.506;2023-08-07T05:16:07;4.57;;;1.75;;
15689;SDS011;7945;48.816;11.506;2023-08-07T05:18:33;2.50;;;1.67;;
15689;SDS011;7945;48.816;11.506;2023-08-07T05:21:01;3.47;;;2.00;;
15689;SDS011;7945;48.816;11.506;2023-08-07T05:23:28;3.25;;;2.00;;
15689;SDS011;7945;48.816;11.506;2023-08-07T05:25:55;2.17;;;2.05;;
15689;SDS011;7945;48.816;11.506;2023-08-07T05:28:22;4.07;;;2.03;;
15689;SDS011;7945;48.816;11.506;2023-08-07T05:30:48;3.25;;;2.10;;
15689;SDS011;7945;48.816;11.506;2023-08-07T05:33:15;4.20;;;2.30;;
15689;SDS011;7945;48.816;11.506;2023-08-07T05:35:42;1.80;;;1.70;;
15689;SDS011;7945;48.816;11.506;2023-08-07T05:38:10;2.20;;;1.90;;
15689;SDS011;7945;48.816;11.506;2023-08-07T05:40:37;3.20;;;1.83;;
15689;SDS011;7945;48.816;11.506;2023-08-07T05:43:04;2.55;;;1.75;;
15689;SDS011;7945;48.816;11.506;2023-08-07T05:45:31;3.75;;;2.13;;
15689;SDS011;7945;48.816;11.506;2023-08-07T05:47:58;2.35;;;2.00;;
15689;SDS011;7945;48.816;11.506;2023-08-07T05:50:25;3.22;;;2.20;;
15689;SDS011;7945;48.816;11.506;2023-08-07T05:52:51;3.05;;;2.08;;
15689;SDS011;7945;48.816;11.506;2023-08-07T05:55:19;2.42;;;2.08;;
15689;SDS011;7945;48.816;11.506;2023-08-07T05:57:46;2.92;;;1.80;;
15689;SDS011;7945;48.816;11.506;2023-08-07T06:00:15;4.07;;;2.20;;
15689;SDS011;7945;48.816;11.506;2023-08-07T06:02:44;2.08;;;1.92;;
15689;SDS011;7945;48.816;11.506;2023-08-07T06:05:11;2.22;;;1.60;;
15689;SDS011;7945;48.816;11.506;2023-08-07T06:07:40;3.00;;;2.13;;
15689;SDS011;7945;48.816;11.506;2023-08-07T06:10:07;3.50;;;2.15;;
15689;SDS011;7945;48.816;11.506;2023-08-07T06:15:39;3.60;;;2.42;;
15689;SDS011;7945;48.816;11.506;2023-08-07T06:18:05;3.45;;;2.20;;
15689;SDS011;7945;48.816;11.506;2023-08-07T06:20:33;3.17;;;2.10;;
15689;SDS011;7945;48.816;11.506;2023-08-07T06:23:00;2.92;;;1.98;;
15689;SDS011;7945;48.816;11.506;2023-08-07T06:25:27;2.50;;;2.08;;
15689;SDS011;7945;48.816;11.506;2023-08-07T06:27:53;3.08;;;2.08;;
15689;SDS011;7945;48.816;11.506;2023-08-07T06:30:20;2.47;;;2.28;;
15689;SDS011;7945;48.816;11.506;2023-08-07T06:32:48;2.38;;;2.10;;
15689;SDS011;7945;48.816;11.506;2023-08-07T06:35:15;2.00;;;1.70;;
15689;SDS011;7945;48.816;11.506;2023-08-07T06:37:42;4.05;;;2.17;;
15689;SDS011;7945;48.816;11.506;2023-08-07T06:40:08;2.20;;;2.00;;
15689;SDS011;7945;48.816;11.506;2023-08-07T06:42:36;5.78;;;2.35;;
15689;SDS011;7945;48.816;11.506;2023-08-07T06:45:03;3.83;;;2.20;;
15689;SDS011;7945;48.816;11.506;2023-08-07T06:47:30;3.50;;;2.22;;
15689;SDS011;7945;48.816;11.506;2023-08-07T06:49:58;3.88;;;2.05;;
15689;SDS011;7945;48.816;11.506;2023-08-07T06:52:25;4.07;;;1.95;;
15689;SDS011;7945;48.816;11.506;2023-08-07T06:54:52;4.13;;;2.22;;
15689;SDS011;7945;48.816;11.506;2023-08-07T06:57:19;3.33;;;2.00;;
15689;SDS011;7945;48.816;11.506;2023-08-07T06:59:46;4.75;;;2.30;;
15689;SDS011;7945;48.816;11.506;2023-08-07T07:02:12;2.92;;;2.20;;
15689;SDS011;7945;48.816;11.506;2023-08-07T07:04:39;4.35;;;1.95;;
15689;SDS011;7945;48.816;11.506;2023-08-07T07:07:07;3.83;;;1.90;;
15689;SDS011;7945;48.816;11.506;2023-08-07T07:09:34;2.03;;;1.83;;
15689;SDS011;7945;48.816;11.506;2023-08-07T07:12:01;2.15;;;1.80;;
15689;SDS011;7945;48.816;11.506;2023-08-07T07:14:27;3.00;;;2.20;;
15689;SDS011;7945;48.816;11.506;2023-08-07T07:16:54;1.95;;;1.73;;
15689;SDS011;7945;48.816;11.506;2023-08-07T07:19:21;3.80;;;2.05;;
15689;SDS011;7945;48.816;11.506;2023-08-07T07:21:47;2.40;;;1.55;;
15689;SDS011;7945;48.816;11.506;2023-08-07T07:24:16;2.15;;;1.73;;
15689;SDS011;7945;48.816;11.506;2023-08-07T07:26:43;2.55;;;1.77;;
15689;SDS011;7945;48.816;11.506;2023-08-07T07:29:09;2.63;;;1.80;;
15689;SDS011;7945;48.816;11.506;2023-08-07T07:31:36;4.13;;;2.45;;
15689;SDS011;7945;48.816;11.506;2023-08-07T07:34:03;2.30;;;1.70;;
15689;SDS011;7945;48.816;11.506;2023-08-07T07:36:30;2.20;;;2.00;;
15689;SDS011;7945;48.816;11.506;2023-08-07T07:38:56;3.17;;;2.30;;
15689;SDS011;7945;48.816;11.506;2023-08-07T07:41:24;2.42;;;2.03;;
15689;SDS011;7945;48.816;11.506;2023-08-07T07:43:52;2.40;;;1.80;;
15689;SDS011;7945;48.816;11.506;2023-08-07T07:46:21;6.22;;;1.70;;
15689;SDS011;7945;48.816;11.506;2023-08-07T07:48:48;2.25;;;1.50;;
15689;SDS011;7945;48.816;11.506;2023-08-07T07:51:15;2.38;;;1.90;;
15689;SDS011;7945;48.816;11.506;2023-08-07T07:53:42;3.42;;;1.92;;
15689;SDS011;7945;48.816;11.506;2023-08-07T07:56:08;2.10;;;1.55;;
15689;SDS011;7945;48.816;11.506;2023-08-07T07:58:36;2.03;;;1.83;;
15689;SDS011;7945;48.816;11.506;2023-08-07T08:01:03;2.13;;;1.85;;
15689;SDS011;7945;48.816;11.506;2023-08-07T08:03:30;2.50;;;1.70;;
15689;SDS011;7945;48.816;11.506;2023-08-07T08:05:56;1.88;;;1.65;;
15689;SDS011;7945;48.816;11.506;2023-08-07T08:08:23;2.65;;;1.75;;
15689;SDS011;7945;48.816;11.506;2023-08-07T08:10:50;2.70;;;1.50;;
15689;SDS011;7945;48.816;11.506;2023-08-07T08:13:17;2.72;;;1.85;;
15689;SDS011;7945;48.816;11.506;2023-08-07T08:15:45;2.75;;;1.98;;
15689;SDS011;7945;48.816;11.506;2023-08-07T08:18:12;3.05;;;2.08;;
15689;SDS011;7945;48.816;11.506;2023-08-07T08:20:39;6.22;;;2.17;;
15689;SDS011;7945;48.816;11.506;2023-08-07T08:23:06;2.10;;;1.90;;
15689;SDS011;7945;48.816;11.506;2023-08-07T08:25:32;2.83;;;1.90;;
15689;SDS011;7945;48.816;11.506;2023-08-07T08:27:59;5.82;;;1.80;;
15689;SDS011;7945;48.816;11.506;2023-08-07T08:30:26;5.05;;;2.83;;
15689;SDS011;7945;48.816;11.506;2023-08-07T08:32:55;2.40;;;1.90;;
15689;SDS011;7945;48.816;11.506;2023-08-07T08:35:22;4.80;;;2.10;;
15689;SDS011;7945;48.816;11.506;2023-08-07T08:37:48;2.10;;;1.83;;
15689;SDS011;7945;48.816;11.506;2023-08-07T08:40:15;2.20;;;1.90;;
15689;SDS011;7945;48.816;11.506;2023-08-07T08:42:44;2.67;;;1.90;;
15689;SDS011;7945;48.816;11.506;2023-08-07T08:45:12;4.82;;;2.17;;
15689;SDS011;7945;48.816;11.506;2023-08-07T08:47:41;2.90;;;1.80;;
15689;SDS011;7945;48.816;11.506;2023-08-07T08:50:11;1.88;;;1.77;;
15689;SDS011;7945;48.816;11.506;2023-08-07T08:52:41;3.22;;;2.03;;
15689;SDS011;7945;48.816;11.506;2023-08-07T08:55:08;2.75;;;1.80;;
15689;SDS011;7945;48.816;11.506;2023-08-07T08:57:36;4.25;;;2.30;;
15689;SDS011;7945;48.816;11.506;2023-08-07T09:00:04;4.80;;;2.08;;
15689;SDS011;7945;48.816;11.506;2023-08-07T09:02:40;2.05;;;1.85;;
15689;SDS011;7945;48.816;11.506;2023-08-07T09:05:07;2.83;;;2.15;;
15689;SDS011;7945;48.816;11.506;2023-08-07T09:07:35;4.28;;;1.90;;
15689;SDS011;7945;48.816;11.506;2023-08-07T09:10:03;2.20;;;1.80;;
15689;SDS011;7945;48.816;11.506;2023-08-07T09:12:31;3.97;;;2.00;;
15689;SDS011;7945;48.816;11.506;2023-08-07T09:14:59;3.58;;;2.03;;
15689;SDS011;7945;48.816;11.506;2023-08-07T09:17:31;2.42;;;1.83;;
15689;SDS011;7945;48.816;11.506;2023-08-07T09:19:59;3.70;;;2.17;;
15689;SDS011;7945;48.816;11.506;2023-08-07T09:22:29;2.60;;;2.00;;
15689;SDS011;7945;48.816;11.506;2023-08-07T09:24:57;2.58;;;1.90;;
15689;SDS011;7945;48.816;11.506;2023-08-07T09:27:25;4.32;;;2.00;;
15689;SDS011;7945;48.816;11.506;2023-08-07T09:29:53;3.63;;;2.05;;
15689;SDS011;7945;48.816;11.506;2023-08-07T09:32:20;3.08;;;1.95;;
15689;SDS011;7945;48.816;11.506;2023-08-07T09:34:49;3.50;;;2.15;;
15689;SDS011;7945;48.816;11.506;2023-08-07T09:37:16;4.13;;;2.28;;
15689;SDS011;7945;48.816;11.506;2023-08-07T09:39:43;2.63;;;2.22;;
15689;SDS011;7945;48.816;11.506;2023-08-07T09:42:14;8.88;;;2.45;;
15689;SDS011;7945;48.816;11.506;2023-08-07T09:44:42;2.35;;;1.88;;
15689;SDS011;7945;48.816;11.506;2023-08-07T09:47:13;2.03;;;1.77;;
15689;SDS011;7945;48.816;11.506;2023-08-07T09:49:40;5.50;;;2.22;;
15689;SDS011;7945;48.816;11.506;2023-08-07T09:52:08;2.30;;;1.75;;
15689;SDS011;7945;48.816;11.506;2023-08-07T09:54:38;4.80;;;2.17;;
15689;SDS011;7945;48.816;11.506;2023-08-07T09:57:05;9.00;;;2.10;;
15689;SDS011;7945;48.816;11.506;2023-08-07T09:59:33;3.45;;;1.63;;
15689;SDS011;7945;48.816;11.506;2023-08-07T10:02:01;2.20;;;1.80;;
15689;SDS011;7945;48.816;11.506;2023-08-07T10:04:28;1.85;;;1.48;;
15689;SDS011;7945;48.816;11.506;2023-08-07T10:06:55;2.20;;;1.70;;
15689;SDS011;7945;48.816;11.506;2023-08-07T10:09:23;4.10;;;1.85;;
15689;SDS011;7945;48.816;11.506;2023-08-07T10:11:52;1.80;;;1.60;;
15689;SDS011;7945;48.816;11.506;2023-08-07T10:14:19;1.67;;;1.50;;
15689;SDS011;7945;48.816;11.506;2023-08-07T10:16:47;3.55;;;1.52;;
15689;SDS011;7945;48.816;11.506;2023-08-07T10:19:16;2.45;;;1.60;;
15689;SDS011;7945;48.816;11.506;2023-08-07T10:21:43;2.05;;;1.63;;
15689;SDS011;7945;48.816;11.506;2023-08-07T10:24:11;2.97;;;1.73;;
15689;SDS011;7945;48.816;11.506;2023-08-07T10:26:41;2.03;;;1.85;;
15689;SDS011;7945;48.816;11.506;2023-08-07T10:29:13;3.63;;;1.80;;
15689;SDS011;7945;48.816;11.506;2023-08-07T10:31:43;1.88;;;1.77;;
15689;SDS011;7945;48.816;11.506;2023-08-07T10:34:13;2.00;;;1.80;;
15689;SDS011;7945;48.816;11.506;2023-08-07T10:36:40;3.47;;;1.60;;
15689;SDS011;7945;48.816;11.506;2023-08-07T10:39:06;2.47;;;1.67;;
15689;SDS011;7945;48.816;11.506;2023-08-07T10:41:37;3.42;;;1.70;;
15689;SDS011;7945;48.816;11.506;2023-08-07T10:44:05;2.90;;;1.48;;
15689;SDS011;7945;48.816;11.506;2023-08-07T10:46:47;3.55;;;1.58;;
15689;SDS011;7945;48.816;11.506;2023-08-07T10:52:10;2.35;;;1.83;;
15689;SDS011;7945;48.816;11.506;2023-08-07T10:54:40;1.70;;;1.40;;
15689;SDS011;7945;48.816;11.506;2023-08-07T10:57:12;3.50;;;1.60;;
15689;SDS011;7945;48.816;11.506;2023-08-07T10:59:43;2.22;;;1.40;;
15689;SDS011;7945;48.816;11.506;2023-08-07T11:02:21;4.03;;;1.88;;
15689;SDS011;7945;48.816;11.506;2023-08-07T11:04:51;2.17;;;1.90;;
15689;SDS011;7945;48.816;11.506;2023-08-07T11:07:24;2.88;;;1.73;;
15689;SDS011;7945;48.816;11.506;2023-08-07T11:09:51;2.38;;;2.00;;
15689;SDS011;7945;48.816;11.506;2023-08-07T11:12:18;2.15;;;1.52;;
15689;SDS011;7945;48.816;11.506;2023-08-07T11:14:45;2.95;;;1.52;;
15689;SDS011;7945;48.816;11.506;2023-08-07T11:17:12;2.58;;;1.70;;
15689;SDS011;7945;48.816;11.506;2023-08-07T11:19:39;2.88;;;1.60;;
15689;SDS011;7945;48.816;11.506;2023-08-07T11:22:06;4.75;;;1.58;;
15689;SDS011;7945;48.816;11.506;2023-08-07T11:24:34;2.08;;;1.40;;
15689;SDS011;7945;48.816;11.506;2023-08-07T11:27:01;4.10;;;2.05;;
15689;SDS011;7945;48.816;11.506;2023-08-07T11:29:27;2.13;;;1.67;;
15689;SDS011;7945;48.816;11.506;2023-08-07T11:31:56;2.65;;;1.52;;
15689;SDS011;7945;48.816;11.506;2023-08-07T11:34:22;2.97;;;1.73;;
15689;SDS011;7945;48.816;11.506;2023-08-07T11:36:50;2.25;;;1.40;;
15689;SDS011;7945;48.816;11.506;2023-08-07T11:39:19;1.73;;;1.30;;
15689;SDS011;7945;48.816;11.506;2023-08-07T11:41:49;1.92;;;1.27;;
15689;SDS011;7945;48.816;11.506;2023-08-07T11:44:17;1.60;;;1.30;;
15689;SDS011;7945;48.816;11.506;2023-08-07T11:46:44;3.63;;;1.52;;
15689;SDS011;7945;48.816;11.506;2023-08-07T11:49:12;2.00;;;1.40;;
15689;SDS011;7945;48.816;11.506;2023-08-07T11:51:38;4.75;;;1.60;;
15689;SDS011;7945;48.816;11.506;2023-08-07T11:54:06;2.33;;;1.42;;
15689;SDS011;7945;48.816;11.506;2023-08-07T11:56:33;2.03;;;1.50;;
15689;SDS011;7945;48.816;11.506;2023-08-07T11:59:01;2.33;;;1.45;;
15689;SDS011;7945;48.816;11.506;2023-08-07T12:01:29;7.75;;;1.70;;
15689;SDS011;7945;48.816;11.506;2023-08-07T12:03:56;2.13;;;1.42;;
15689;SDS011;7945;48.816;11.506;2023-08-07T12:06:23;3.30;;;1.60;;
15689;SDS011;7945;48.816;11.506;2023-08-07T12:08:53;2.70;;;1.63;;
15689;SDS011;7945;48.816;11.506;2023-08-07T12:11:21;1.88;;;1.75;;
15689;SDS011;7945;48.816;11.506;2023-08-07T12:13:48;1.45;;;1.35;;
15689;SDS011;7945;48.816;11.506;2023-08-07T12:16:16;1.60;;;1.50;;
15689;SDS011;7945;48.816;11.506;2023-08-07T12:18:44;2.58;;;1.40;;
15689;SDS011;7945;48.816;11.506;2023-08-07T12:21:13;1.65;;;1.55;;
15689;SDS011;7945;48.816;11.506;2023-08-07T12:23:41;2.50;;;1.40;;
15689;SDS011;7945;48.816;11.506;2023-08-07T12:26:07;1.40;;;1.30;;
15689;SDS011;7945;48.816;11.506;2023-08-07T12:28:34;1.98;;;1.20;;
15689;SDS011;7945;48.816;11.506;2023-08-07T12:31:01;2.20;;;1.20;;
15689;SDS011;7945;48.816;11.506;2023-08-07T12:33:30;1.50;;;1.15;;
15689;SDS011;7945;48.816;11.506;2023-08-07T12:35:57;2.22;;;1.17;;
15689;SDS011;7945;48.816;11.506;2023-08-07T12:38:24;2.22;;;1.30;;
15689;SDS011;7945;48.816;11.506;2023-08-07T12:40:51;1.60;;;1.35;;
15689;SDS011;7945;48.816;11.506;2023-08-07T12:43:18;3.58;;;1.67;;
15689;SDS011;7945;48.816;11.506;2023-08-07T12:45:45;1.40;;;1.30;;
15689;SDS011;7945;48.816;11.506;2023-08-07T12:48:13;1.67;;;1.20;;
15689;SDS011;7945;48.816;11.506;2023-08-07T12:50:41;1.20;;;1.10;;
15689;SDS011;7945;48.816;11.506;2023-08-07T12:53:08;2.13;;;1.50;;
15689;SDS011;7945;48.816;11.506;2023-08-07T12:55:35;1.85;;;1.13;;
15689;SDS011;7945;48.816;11.506;2023-08-07T12:58:01;2.00;;;1.52;;
15689;SDS011;7945;48.816;11.506;2023-08-07T13:00:28;1.42;;;1.33;;
15689;SDS011;7945;48.816;11.506;2023-08-07T13:02:56;1.30;;;1.20;;
15689;SDS011;7945;48.816;11.506;2023-08-07T13:05:23;2.25;;;1.33;;
15689;SDS011;7945;48.816;11.506;2023-08-07T13:07:52;3.17;;;1.23;;
15689;SDS011;7945;48.816;11.506;2023-08-07T13:10:21;2.83;;;1.42;;
15689;SDS011;7945;48.816;11.506;2023-08-07T13:12:48;2.72;;;1.27;;
15689;SDS011;7945;48.816;11.506;2023-08-07T13:15:15;2.35;;;1.30;;
15689;SDS011;7945;48.816;11.506;2023-08-07T13:17:43;1.30;;;1.20;;
15689;SDS011;7945;48.816;11.506;2023-08-07T13:20:10;2.03;;;1.33;;
15689;SDS011;7945;48.816;11.506;2023-08-07T13:22:39;1.50;;;1.40;;
15689;SDS011;7945;48.816;11.506;2023-08-07T13:25:08;1.73;;;1.30;;
15689;SDS011;7945;48.816;11.506;2023-08-07T13:27:37;3.60;;;1.70;;
15689;SDS011;7945;48.816;11.506;2023-08-07T13:30:05;1.50;;;1.40;;
15689;SDS011;7945;48.816;11.506;2023-08-07T13:32:33;1.38;;;1.27;;
15689;SDS011;7945;48.816;11.506;2023-08-07T13:35:00;1.95;;;1.58;;
15689;SDS011;7945;48.816;11.506;2023-08-07T13:37:28;2.40;;;1.38;;
15689;SDS011;7945;48.816;11.506;2023-08-07T13:39:54;1.30;;;1.20;;
15689;SDS011;7945;48.816;11.506;2023-08-07T13:42:24;2.58;;;1.60;;
15689;SDS011;7945;48.816;11.506;2023-08-07T13:44:52;2.95;;;1.40;;
15689;SDS011;7945;48.816;11.506;2023-08-07T13:47:19;3.25;;;1.40;;
15689;SDS011;7945;48.816;11.506;2023-08-07T13:49:46;1.75;;;1.40;;
15689;SDS011;7945;48.816;11.506;2023-08-07T13:52:13;2.47;;;1.42;;
15689;SDS011;7945;48.816;11.506;2023-08-07T13:54:40;1.55;;;1.30;;
15689;SDS011;7945;48.816;11.506;2023-08-07T13:57:07;2.83;;;1.48;;
15689;SDS011;7945;48.816;11.506;2023-08-07T13:59:35;2.65;;;1.90;;
15689;SDS011;7945;48.816;11.506;2023-08-07T14:02:01;1.40;;;1.30;;
15689;SDS011;7945;48.816;11.506;2023-08-07T14:04:28;2.30;;;1.38;;
15689;SDS011;7945;48.816;11.506;2023-08-07T14:06:55;2.47;;;1.50;;
15689;SDS011;7945;48.816;11.506;2023-08-07T14:09:23;2.38;;;1.20;;
15689;SDS011;7945;48.816;11.506;2023-08-07T14:11:50;1.73;;;1.10;;
15689;SDS011;7945;48.816;11.506;2023-08-07T14:14:17;3.65;;;1.40;;
15689;SDS011;7945;48.816;11.506;2023-08-07T14:16:45;2.58;;;1.58;;
15689;SDS011;7945;48.816;11.506;2023-08-07T14:19:11;1.77;;;1.40;;
15689;SDS011;7945;48.816;11.506;2023-08-07T14:21:38;1.23;;;1.13;;
15689;SDS011;7945;48.816;11.506;2023-08-07T14:24:05;1.60;;;1.13;;
15689;SDS011;7945;48.816;11.506;2023-08-07T14:26:32;1.30;;;1.20;;
15689;SDS011;7945;48.816;11.506;2023-08-07T14:28:58;2.65;;;1.30;;
15689;SDS011;7945;48.816;11.506;2023-08-07T14:31:25;2.25;;;1.40;;
15689;SDS011;7945;48.816;11.506;2023-08-07T14:33:53;2.05;;;1.30;;
15689;SDS011;7945;48.816;11.506;2023-08-07T14:36:21;1.85;;;1.55;;
15689;SDS011;7945;48.816;11.506;2023-08-07T14:38:48;1.25;;;1.15;;
15689;SDS011;7945;48.816;11.506;2023-08-07T14:41:14;1.60;;;1.25;;
15689;SDS011;7945;48.816;11.506;2023-08-07T14:43:41;1.23;;;1.20;;
15689;SDS011;7945;48.816;11.506;2023-08-07T14:46:08;2.70;;;1.30;;
15689;SDS011;7945;48.816;11.506;2023-08-07T14:48:35;2.28;;;1.30;;
15689;SDS011;7945;48.816;11.506;2023-08-07T14:51:03;1.30;;;1.20;;
15689;SDS011;7945;48.816;11.506;2023-08-07T14:53:30;1.75;;;1.20;;
15689;SDS011;7945;48.816;11.506;2023-08-07T14:55:57;1.20;;;1.10;;